createdAt,value
2022-11-23T00:02:17.405Z,7.70
2022-11-23T00:04:45.721Z,7.60
2022-11-23T00:07:14.373Z,7.70
2022-11-23T00:09:43.635Z,7.80
2022-11-23T00:12:12.123Z,7.80
2022-11-23T00:17:16.929Z,7.90
2022-11-23T00:19:45.739Z,7.80
2022-11-23T00:24:52.550Z,7.70
2022-11-23T00:29:59.614Z,7.80
2022-11-23T00:32:33.272Z,7.80
2022-11-23T00:37:32.955Z,7.70
2022-11-23T00:40:01.370Z,7.80
2022-11-23T00:42:33.749Z,7.70
2022-11-23T00:45:05.562Z,7.80
2022-11-23T00:47:35.066Z,7.80
2022-11-23T00:50:06.920Z,7.80
2022-11-23T00:52:35.157Z,7.80
2022-11-23T00:55:05.460Z,7.80
2022-11-23T00:57:34.879Z,7.70
2022-11-23T01:00:03.087Z,7.60
2022-11-23T01:02:31.233Z,7.60
2022-11-23T01:05:00.660Z,7.60
2022-11-23T01:07:31.505Z,7.70
2022-11-23T01:09:59.702Z,7.70
2022-11-23T01:12:29.847Z,7.70
2022-11-23T01:14:58.132Z,7.70
2022-11-23T01:17:26.247Z,7.70
2022-11-23T01:19:56.587Z,7.80
2022-11-23T01:22:26.168Z,7.70
2022-11-23T01:24:54.464Z,7.80
2022-11-23T01:27:23.058Z,7.80
2022-11-23T01:29:52.116Z,7.80
2022-11-23T01:32:21.311Z,7.80
2022-11-23T01:34:50.851Z,7.90
2022-11-23T01:37:19.128Z,7.90
2022-11-23T01:39:49.793Z,7.90
2022-11-23T01:42:18.201Z,7.80
2022-11-23T01:44:46.491Z,7.80
2022-11-23T01:47:14.717Z,7.80
2022-11-23T01:49:46.688Z,7.80
2022-11-23T01:52:19.344Z,7.80
2022-11-23T01:54:51.467Z,7.90
2022-11-23T01:57:23.411Z,7.80
2022-11-23T01:59:52.652Z,7.80
2022-11-23T02:02:23.760Z,7.70
2022-11-23T02:04:56.280Z,7.80
2022-11-23T02:07:27.418Z,7.70
2022-11-23T02:09:57.334Z,7.80
2022-11-23T02:12:26.505Z,7.80
2022-11-23T02:14:54.993Z,7.80
2022-11-23T02:17:23.296Z,7.80
2022-11-23T02:19:58.962Z,7.70
2022-11-23T02:22:34.523Z,7.70
2022-11-23T02:25:09.698Z,7.50
2022-11-23T02:27:43.928Z,7.40
2022-11-23T02:30:15.249Z,7.40
2022-11-23T02:32:44.565Z,7.40
2022-11-23T02:35:13.341Z,7.20
2022-11-23T02:37:44.962Z,7.20
2022-11-23T02:40:21.476Z,7.20
2022-11-23T02:42:51.838Z,7.20
2022-11-23T02:45:31.700Z,7.40
2022-11-23T02:48:02.334Z,7.50
2022-11-23T02:50:31.704Z,7.50
2022-11-23T02:53:01.904Z,7.50
2022-11-23T02:55:33.107Z,7.50
2022-11-23T02:58:04.356Z,7.60
2022-11-23T03:00:33.099Z,7.60
2022-11-23T03:03:03.193Z,7.60
2022-11-23T03:05:34.739Z,7.70
2022-11-23T03:08:07.220Z,7.70
2022-11-23T03:10:35.724Z,7.60
2022-11-23T03:13:05.342Z,7.70
2022-11-23T03:15:36.947Z,7.70
2022-11-23T03:18:06.482Z,7.70
2022-11-23T03:20:35.338Z,7.70
2022-11-23T03:23:03.582Z,7.70
2022-11-23T03:25:32.623Z,7.80
2022-11-23T03:28:00.742Z,7.90
2022-11-23T03:30:31.444Z,7.90
2022-11-23T03:33:00.037Z,7.90
2022-11-23T03:35:29.333Z,8.00
2022-11-23T03:38:16.864Z,7.90
2022-11-23T03:40:46.763Z,7.90
2022-11-23T03:43:26.478Z,8.00
2022-11-23T03:45:58.204Z,8.00
2022-11-23T03:48:26.493Z,8.10
2022-11-23T03:50:54.825Z,8.00
2022-11-23T03:53:22.990Z,8.10
2022-11-23T03:55:51.223Z,8.00
2022-11-23T03:58:19.397Z,8.00
2022-11-23T04:00:47.872Z,8.00
2022-11-23T04:06:05.265Z,7.90
2022-11-23T04:08:53.576Z,7.70
2022-11-23T04:11:40.577Z,7.70
2022-11-23T04:14:09.915Z,7.70
2022-11-23T04:16:38.635Z,7.60
2022-11-23T04:19:08.177Z,7.60
2022-11-23T04:21:37.065Z,7.60
2022-11-23T04:24:08.217Z,7.70
2022-11-23T04:26:40.979Z,7.70
2022-11-23T04:29:11.119Z,7.70
2022-11-23T04:31:43.109Z,7.80
2022-11-23T04:34:19.060Z,7.80
2022-11-23T04:36:48.495Z,7.80
2022-11-23T04:39:17.059Z,7.80
2022-11-23T04:42:05.915Z,7.90
2022-11-23T04:44:35.338Z,7.90
2022-11-23T04:47:06.664Z,8.00
2022-11-23T04:49:39.709Z,8.00
2022-11-23T04:52:09.492Z,7.90
2022-11-23T04:54:44.106Z,7.90
2022-11-23T04:57:13.194Z,7.80
2022-11-23T04:59:44.567Z,7.80
2022-11-23T05:02:12.916Z,7.80
2022-11-23T05:04:50.562Z,7.80
2022-11-23T05:07:20.471Z,7.80
2022-11-23T05:09:55.284Z,7.80
2022-11-23T05:12:23.745Z,7.80
2022-11-23T05:14:52.633Z,7.80
2022-11-23T05:17:25.948Z,7.80
2022-11-23T05:19:57.404Z,7.80
2022-11-23T05:22:26.674Z,7.80
2022-11-23T05:24:55.762Z,7.80
2022-11-23T05:27:26.097Z,7.70
2022-11-23T05:29:54.514Z,7.70
2022-11-23T05:32:22.961Z,7.70
2022-11-23T05:34:51.694Z,7.80
2022-11-23T05:37:21.998Z,7.80
2022-11-23T05:39:55.477Z,7.80
2022-11-23T05:42:26.683Z,7.70
2022-11-23T05:44:59.023Z,7.70
2022-11-23T05:47:36.195Z,7.70
2022-11-23T05:50:08.882Z,7.70
2022-11-23T05:52:42.445Z,7.70
2022-11-23T05:55:10.823Z,7.70
2022-11-23T05:57:39.806Z,7.60
2022-11-23T06:00:11.558Z,7.60
2022-11-23T06:02:48.054Z,7.60
2022-11-23T06:05:19.209Z,7.70
2022-11-23T06:07:55.170Z,8.80
2022-11-23T06:10:27.852Z,7.60
2022-11-23T06:13:03.879Z,7.60
2022-11-23T06:15:33.088Z,7.60
2022-11-23T06:18:02.205Z,7.60
2022-11-23T06:20:38.936Z,7.70
2022-11-23T06:23:08.629Z,7.70
2022-11-23T06:25:38.684Z,7.70
2022-11-23T06:28:13.972Z,7.70
2022-11-23T06:30:45.829Z,7.70
2022-11-23T06:33:15.074Z,7.60
2022-11-23T06:35:57.828Z,7.40
2022-11-23T06:38:32.237Z,7.40
2022-11-23T06:41:05.060Z,7.30
2022-11-23T06:43:33.555Z,7.30
2022-11-23T06:46:05.452Z,7.40
2022-11-23T06:48:35.462Z,7.40
2022-11-23T06:51:04.416Z,7.40
2022-11-23T06:53:38.483Z,7.40
2022-11-23T06:56:09.639Z,7.40
2022-11-23T07:01:12.730Z,7.40
2022-11-23T07:03:48.145Z,7.40
2022-11-23T07:06:23.803Z,7.50
2022-11-23T07:08:57.488Z,7.40
2022-11-23T07:11:49.032Z,7.30
2022-11-23T07:14:18.304Z,7.30
2022-11-23T07:16:48.989Z,7.40
2022-11-23T07:19:17.275Z,7.40
2022-11-23T07:21:48.555Z,7.40
2022-11-23T07:24:18.807Z,7.50
2022-11-23T07:26:48.158Z,7.60
2022-11-23T07:29:16.450Z,7.50
2022-11-23T07:31:47.350Z,7.50
2022-11-23T07:34:16.406Z,7.70
2022-11-23T07:36:46.987Z,7.70
2022-11-23T07:39:15.552Z,7.70
2022-11-23T07:41:51.187Z,7.70
2022-11-23T07:44:27.614Z,7.50
2022-11-23T07:46:56.916Z,7.60
2022-11-23T07:49:25.245Z,7.30
2022-11-23T07:54:23.899Z,7.40
2022-11-23T07:59:22.150Z,7.70
2022-11-23T08:01:54.312Z,7.70
2022-11-23T08:04:26.836Z,7.70
2022-11-23T08:06:55.353Z,7.80
2022-11-23T08:09:23.883Z,7.90
2022-11-23T08:11:53.833Z,8.00
2022-11-23T08:14:21.973Z,8.00
2022-11-23T08:16:50.874Z,7.90
2022-11-23T08:21:47.666Z,7.90
2022-11-23T08:24:16.021Z,7.90
2022-11-23T08:26:47.886Z,8.00
2022-11-23T08:29:17.679Z,8.00
2022-11-23T08:31:46.061Z,8.10
2022-11-23T08:34:14.557Z,8.10
2022-11-23T08:36:45.290Z,8.40
2022-11-23T08:39:14.756Z,8.10
2022-11-23T08:41:43.222Z,8.10
2022-11-23T08:44:12.352Z,8.10
2022-11-23T08:46:42.081Z,8.10
2022-11-23T08:54:10.248Z,8.20
2022-11-23T08:56:38.512Z,8.20
2022-11-23T08:59:06.877Z,8.40
2022-11-23T09:01:38.327Z,8.30
2022-11-23T09:06:38.026Z,8.50
2022-11-23T09:09:06.863Z,8.70
2022-11-23T09:11:35.698Z,8.80
2022-11-23T09:14:06.275Z,8.80
2022-11-23T09:21:35.901Z,8.90
2022-11-23T09:24:04.425Z,8.60
2022-11-23T09:26:33.993Z,8.70
2022-11-23T09:29:02.340Z,8.70
2022-11-23T09:31:33.731Z,8.90
2022-11-23T09:34:02.243Z,9.00
2022-11-23T09:39:00.501Z,8.80
2022-11-23T09:42:16.826Z,8.80
2022-11-23T09:45:07.141Z,8.70
2022-11-23T09:47:52.635Z,8.70
2022-11-23T09:50:28.635Z,8.70
2022-11-23T09:55:42.240Z,8.70
2022-11-23T09:58:15.182Z,8.80
2022-11-23T10:00:49.825Z,8.80
2022-11-23T10:03:19.637Z,8.80
2022-11-23T10:05:57.503Z,9.00
2022-11-23T10:08:37.459Z,9.00
2022-11-23T10:11:30.726Z,9.10
2022-11-23T10:14:08.074Z,9.00
2022-11-23T10:16:48.080Z,9.10
2022-11-23T10:19:26.019Z,9.20
2022-11-23T10:22:06.396Z,9.20
2022-11-23T10:24:39.506Z,9.30
2022-11-23T10:27:15.667Z,9.30
2022-11-23T10:29:45.017Z,9.30
2022-11-23T10:32:30.348Z,9.40
2022-11-23T10:35:05.926Z,9.60
2022-11-23T10:37:34.925Z,9.60
2022-11-23T10:42:39.858Z,9.50
2022-11-23T10:45:20.314Z,9.60
2022-11-23T10:47:52.993Z,9.60
2022-11-23T10:50:34.961Z,9.90
2022-11-23T10:53:21.228Z,9.60
2022-11-23T10:55:53.729Z,9.80
2022-11-23T10:58:35.267Z,9.60
2022-11-23T11:01:06.149Z,10.10
2022-11-23T11:03:37.219Z,9.70
2022-11-23T11:06:09.017Z,9.80
2022-11-23T11:08:51.131Z,9.80
2022-11-23T11:11:30.510Z,9.80
2022-11-23T11:14:08.287Z,9.80
2022-11-23T11:16:38.258Z,9.80
2022-11-23T11:19:27.285Z,9.80
2022-11-23T11:21:56.262Z,10.00
2022-11-23T11:24:31.512Z,10.00
2022-11-23T11:27:03.271Z,10.40
2022-11-23T11:29:39.726Z,10.40
2022-11-23T11:32:18.301Z,10.30
2022-11-23T11:34:51.157Z,10.40
2022-11-23T11:37:32.014Z,10.50
2022-11-23T11:40:10.721Z,10.40
2022-11-23T11:42:44.770Z,10.10
2022-11-23T11:45:20.694Z,10.10
2022-11-23T11:47:54.584Z,10.10
2022-11-23T11:50:31.458Z,10.30
2022-11-23T11:53:07.354Z,10.20
2022-11-23T11:55:49.564Z,10.40
2022-11-23T11:58:18.791Z,10.40
2022-11-23T12:00:51.818Z,10.50
2022-11-23T12:03:28.652Z,11.00
2022-11-23T12:06:05.499Z,10.50
2022-11-23T12:08:42.259Z,10.50
2022-11-23T12:11:12.653Z,10.40
2022-11-23T12:13:44.880Z,10.40
2022-11-23T12:16:23.173Z,10.30
2022-11-23T12:19:10.304Z,10.50
2022-11-23T12:22:00.231Z,10.50
2022-11-23T12:24:43.334Z,10.60
2022-11-23T12:27:24.248Z,10.60
2022-11-23T12:30:18.422Z,10.50
2022-11-23T12:33:14.214Z,10.40
2022-11-23T12:35:56.800Z,10.60
2022-11-23T12:38:32.229Z,10.60
2022-11-23T12:41:20.059Z,10.70
2022-11-23T12:44:20.432Z,10.30
2022-11-23T12:46:54.434Z,10.50
2022-11-23T12:49:38.784Z,10.40
2022-11-23T12:52:26.273Z,10.50
2022-11-23T12:55:03.116Z,10.50
2022-11-23T12:57:35.266Z,10.70
2022-11-23T13:00:07.432Z,10.60
2022-11-23T13:03:08.870Z,10.50
2022-11-23T13:06:06.903Z,10.80
2022-11-23T13:09:12.438Z,10.90
2022-11-23T13:11:58.001Z,10.80
2022-11-23T13:14:35.331Z,10.70
2022-11-23T13:17:15.219Z,10.70
2022-11-23T13:20:01.951Z,10.70
2022-11-23T13:22:32.627Z,10.50
2022-11-23T13:25:16.208Z,10.50
2022-11-23T13:27:56.068Z,10.50
2022-11-23T13:30:45.717Z,10.50
2022-11-23T13:33:38.729Z,10.50
2022-11-23T13:36:15.324Z,10.40
2022-11-23T13:38:48.194Z,10.50
2022-11-23T13:44:17.773Z,10.30
2022-11-23T13:46:58.955Z,10.30
2022-11-23T13:49:36.549Z,10.30
2022-11-23T13:52:32.388Z,10.30
2022-11-23T13:55:21.141Z,10.40
2022-11-23T13:58:23.100Z,10.40
2022-11-23T14:00:54.668Z,10.50
2022-11-23T14:03:57.483Z,10.30
2022-11-23T14:06:39.837Z,10.20
2022-11-23T14:09:17.688Z,10.20
2022-11-23T14:12:09.114Z,10.10
2022-11-23T14:14:49.011Z,10.10
2022-11-23T14:17:54.003Z,10.10
2022-11-23T14:20:38.599Z,10.00
2022-11-23T14:23:38.552Z,10.00
2022-11-23T14:26:25.315Z,9.90
2022-11-23T14:29:17.719Z,9.80
2022-11-23T14:31:58.732Z,9.80
2022-11-23T14:34:37.974Z,9.80
2022-11-23T14:37:17.538Z,9.90
2022-11-23T14:40:04.265Z,9.80
2022-11-23T14:42:34.247Z,9.80
2022-11-23T14:45:06.339Z,9.70
2022-11-23T14:47:35.516Z,9.60
2022-11-23T14:50:07.527Z,10.30
2022-11-23T14:52:39.035Z,9.60
2022-11-23T14:55:17.718Z,9.60
2022-11-23T14:57:49.640Z,9.60
2022-11-23T15:00:31.665Z,9.60
2022-11-23T15:03:27.038Z,9.60
2022-11-23T15:06:05.691Z,9.50
2022-11-23T15:08:42.768Z,9.60
2022-11-23T15:11:15.592Z,9.60
2022-11-23T15:13:46.503Z,9.60
2022-11-23T15:16:19.762Z,9.60
2022-11-23T15:18:51.984Z,9.70
2022-11-23T15:21:27.560Z,9.60
2022-11-23T15:23:58.602Z,9.60
2022-11-23T15:26:49.359Z,9.80
2022-11-23T15:29:35.814Z,9.80
2022-11-23T15:32:38.913Z,9.80
2022-11-23T15:35:12.040Z,9.80
2022-11-23T15:37:46.750Z,10.10
2022-11-23T15:40:17.162Z,9.80
2022-11-23T15:42:46.288Z,9.70
2022-11-23T15:45:54.617Z,9.70
2022-11-23T15:48:28.179Z,10.30
2022-11-23T15:51:01.458Z,9.90
2022-11-23T15:53:33.713Z,10.00
2022-11-23T15:56:05.134Z,10.00
2022-11-23T15:58:35.282Z,9.90
2022-11-23T16:01:08.774Z,9.80
2022-11-23T16:03:43.904Z,9.80
2022-11-23T16:06:24.500Z,9.80
2022-11-23T16:08:54.718Z,9.70
2022-11-23T16:11:30.373Z,9.60
2022-11-23T16:14:19.580Z,9.60
2022-11-23T16:17:01.991Z,9.60
2022-11-23T16:19:33.020Z,9.60
2022-11-23T16:22:04.739Z,9.60
2022-11-23T16:24:37.947Z,9.80
2022-11-23T16:27:14.035Z,10.00
2022-11-23T16:29:43.556Z,9.70
2022-11-23T16:32:24.622Z,9.70
2022-11-23T16:34:57.198Z,9.60
2022-11-23T16:37:29.156Z,9.70
2022-11-23T16:39:59.182Z,9.70
2022-11-23T16:42:28.774Z,9.70
2022-11-23T16:44:57.536Z,9.70
2022-11-23T16:47:28.412Z,9.70
2022-11-23T16:49:58.243Z,9.80
2022-11-23T16:52:27.364Z,9.90
2022-11-23T16:54:56.104Z,9.90
2022-11-23T16:57:34.943Z,9.60
2022-11-23T17:00:05.936Z,9.40
2022-11-23T17:02:34.413Z,9.30
2022-11-23T17:05:03.715Z,9.30
2022-11-23T17:07:36.790Z,9.10
2022-11-23T17:10:09.400Z,9.00
2022-11-23T17:12:40.691Z,8.90
2022-11-23T17:15:12.642Z,8.80
2022-11-23T17:17:41.094Z,8.80
2022-11-23T17:20:13.901Z,8.80
2022-11-23T17:22:42.362Z,8.80
2022-11-23T17:25:15.021Z,8.80
2022-11-23T17:27:47.336Z,8.70
2022-11-23T17:30:18.028Z,8.60
2022-11-23T17:32:48.154Z,8.40
2022-11-23T17:35:18.073Z,8.40
2022-11-23T17:37:48.074Z,8.30
2022-11-23T17:40:17.028Z,8.30
2022-11-23T17:42:49.142Z,8.30
2022-11-23T17:45:17.582Z,8.20
2022-11-23T17:47:46.805Z,8.20
2022-11-23T17:50:20.164Z,8.10
2022-11-23T17:52:50.710Z,8.00
2022-11-23T17:55:20.340Z,8.00
2022-11-23T17:57:51.857Z,7.90
2022-11-23T18:00:24.204Z,7.90
2022-11-23T18:02:53.192Z,7.90
2022-11-23T18:05:22.158Z,7.90
2022-11-23T18:07:50.948Z,8.10
2022-11-23T18:12:54.059Z,7.90
2022-11-23T18:15:22.424Z,8.00
2022-11-23T18:17:50.669Z,8.00
2022-11-23T18:20:19.137Z,8.10
2022-11-23T18:22:47.288Z,8.20
2022-11-23T18:25:15.699Z,8.30
2022-11-23T18:27:46.659Z,8.40
2022-11-23T18:32:45.966Z,8.50
2022-11-23T18:35:14.351Z,8.50
2022-11-23T18:37:43.236Z,8.90
2022-11-23T18:40:13.341Z,8.70
2022-11-23T18:42:44.399Z,8.80
2022-11-23T18:45:13.275Z,8.70
2022-11-23T18:47:45.831Z,8.60
2022-11-23T18:50:14.959Z,8.50
2022-11-23T19:00:16.424Z,8.40
2022-11-23T19:07:48.612Z,8.40
2022-11-23T19:15:15.226Z,8.10
2022-11-23T19:17:48.208Z,8.00
2022-11-23T19:20:20.624Z,7.70
2022-11-23T19:25:23.514Z,7.70
2022-11-23T19:30:29.807Z,8.20
2022-11-23T19:40:31.233Z,7.50
2022-11-23T19:42:59.696Z,7.80
2022-11-23T19:50:29.390Z,8.20
2022-11-23T19:55:44.316Z,8.40
2022-11-23T19:58:12.982Z,8.40
2022-11-23T20:00:49.671Z,8.20
2022-11-23T20:05:57.375Z,8.30
2022-11-23T20:28:34.334Z,8.70
2022-11-23T20:36:16.919Z,8.60
2022-11-23T20:41:16.369Z,8.10
2022-11-23T21:11:55.571Z,6.70
2022-11-23T21:14:28.253Z,6.40
2022-11-23T21:17:00.783Z,6.40
2022-11-23T21:19:31.548Z,6.10
2022-11-23T21:22:04.737Z,6.30
2022-11-23T21:24:35.273Z,6.50
2022-11-23T21:27:04.831Z,6.70
2022-11-23T21:29:34.499Z,6.60
2022-11-23T21:42:02.358Z,6.50
2022-11-23T21:49:29.726Z,6.10
2022-11-23T21:51:58.177Z,6.20
2022-11-23T21:59:26.000Z,6.20
2022-11-23T22:01:58.860Z,6.20
2022-11-23T22:04:27.943Z,6.40
2022-11-23T22:09:25.408Z,6.40
2022-11-23T22:11:55.348Z,6.40
2022-11-23T22:14:23.698Z,6.40
2022-11-23T22:16:53.763Z,6.20
2022-11-23T22:19:22.220Z,6.10
2022-11-23T22:24:21.242Z,5.90
2022-11-23T22:29:23.025Z,5.80
2022-11-23T22:31:51.370Z,6.00
2022-11-23T22:34:19.817Z,5.80
2022-11-23T22:36:51.631Z,5.70
2022-11-23T22:39:20.117Z,6.20
2022-11-23T22:41:51.029Z,6.10
2022-11-23T22:49:19.060Z,5.60
2022-11-23T22:51:49.506Z,5.60
2022-11-23T22:56:47.173Z,5.70
2022-11-23T23:04:14.598Z,5.50
2022-11-23T23:06:42.936Z,5.70
2022-11-23T23:11:41.268Z,5.70
2022-11-23T23:14:09.819Z,5.70
2022-11-23T23:16:38.061Z,5.80
2022-11-23T23:19:08.153Z,5.10
2022-11-23T23:21:37.716Z,4.90
2022-11-23T23:24:06.510Z,5.10
2022-11-23T23:29:03.942Z,5.20
2022-11-23T23:31:32.686Z,5.00
2022-11-23T23:34:01.460Z,5.00
2022-11-23T23:36:30.312Z,4.70
2022-11-23T23:38:59.891Z,4.90
2022-11-23T23:41:30.523Z,4.70
2022-11-23T23:43:59.303Z,4.30
2022-11-23T23:46:29.939Z,4.80
2022-11-23T23:49:00.668Z,4.80
2022-11-23T23:51:28.937Z,4.60
2022-11-23T23:54:00.048Z,4.70
2022-11-23T23:56:29.977Z,5.00
2022-11-23T23:58:59.165Z,5.20
